sensor_id;sensor_type;location;lat;lon;timestamp;P1;durP1;ratioP1;P2;durP2;ratioP2
57635;SDS011;43465;50.728;4.160;2022-08-01T00:01:51;4.55;;;2.08;;
57635;SDS011;43465;50.728;4.160;2022-08-01T00:04:17;4.25;;;1.90;;
57635;SDS011;43465;50.728;4.160;2022-08-01T00:06:42;4.07;;;2.10;;
57635;SDS011;43465;50.728;4.160;2022-08-01T00:09:08;3.08;;;1.90;;
57635;SDS011;43465;50.728;4.160;2022-08-01T00:11:33;5.28;;;2.10;;
57635;SDS011;43465;50.728;4.160;2022-08-01T00:13:59;5.47;;;2.10;;
57635;SDS011;43465;50.728;4.160;2022-08-01T00:16:25;3.83;;;1.92;;
57635;SDS011;43465;50.728;4.160;2022-08-01T00:18:51;3.35;;;1.95;;
57635;SDS011;43465;50.728;4.160;2022-08-01T00:21:17;3.13;;;2.03;;
57635;SDS011;43465;50.728;4.160;2022-08-01T00:23:43;2.65;;;1.95;;
57635;SDS011;43465;50.728;4.160;2022-08-01T00:26:10;4.90;;;2.15;;
57635;SDS011;43465;50.728;4.160;2022-08-01T00:28:39;4.65;;;2.05;;
57635;SDS011;43465;50.728;4.160;2022-08-01T00:31:06;3.85;;;2.13;;
57635;SDS011;43465;50.728;4.160;2022-08-01T00:33:32;4.70;;;2.13;;
57635;SDS011;43465;50.728;4.160;2022-08-01T00:35:57;3.08;;;1.90;;
57635;SDS011;43465;50.728;4.160;2022-08-01T00:38:23;2.60;;;1.77;;
57635;SDS011;43465;50.728;4.160;2022-08-01T00:40:49;7.75;;;2.13;;
57635;SDS011;43465;50.728;4.160;2022-08-01T00:43:15;4.28;;;2.03;;
57635;SDS011;43465;50.728;4.160;2022-08-01T00:45:40;5.57;;;2.13;;
57635;SDS011;43465;50.728;4.160;2022-08-01T00:48:06;4.45;;;2.15;;
57635;SDS011;43465;50.728;4.160;2022-08-01T00:50:32;3.63;;;2.28;;
57635;SDS011;43465;50.728;4.160;2022-08-01T00:52:59;5.22;;;2.30;;
57635;SDS011;43465;50.728;4.160;2022-08-01T00:55:26;3.60;;;2.28;;
57635;SDS011;43465;50.728;4.160;2022-08-01T00:57:52;3.00;;;2.17;;
57635;SDS011;43465;50.728;4.160;2022-08-01T01:00:18;4.63;;;1.98;;
57635;SDS011;43465;50.728;4.160;2022-08-01T01:02:44;5.00;;;2.30;;
57635;SDS011;43465;50.728;4.160;2022-08-01T01:05:10;4.20;;;2.30;;
57635;SDS011;43465;50.728;4.160;2022-08-01T01:18:57;5.93;;;2.40;;
57635;SDS011;43465;50.728;4.160;2022-08-01T01:23:57;6.22;;;2.20;;
57635;SDS011;43465;50.728;4.160;2022-08-01T01:26:57;5.03;;;2.28;;
57635;SDS011;43465;50.728;4.160;2022-08-01T01:29:48;4.20;;;2.10;;
57635;SDS011;43465;50.728;4.160;2022-08-01T01:34:48;4.22;;;2.42;;
57635;SDS011;43465;50.728;4.160;2022-08-01T01:37:18;4.00;;;2.60;;
57635;SDS011;43465;50.728;4.160;2022-08-01T01:42:15;5.88;;;2.58;;
57635;SDS011;43465;50.728;4.160;2022-08-01T01:44:43;5.20;;;3.10;;
57635;SDS011;43465;50.728;4.160;2022-08-01T01:47:09;6.32;;;2.80;;
57635;SDS011;43465;50.728;4.160;2022-08-01T01:49:39;6.50;;;2.80;;
57635;SDS011;43465;50.728;4.160;2022-08-01T01:52:08;5.32;;;2.83;;
57635;SDS011;43465;50.728;4.160;2022-08-01T01:54:39;3.60;;;2.97;;
57635;SDS011;43465;50.728;4.160;2022-08-01T01:59:36;5.07;;;2.72;;
57635;SDS011;43465;50.728;4.160;2022-08-01T02:02:04;7.55;;;3.05;;
57635;SDS011;43465;50.728;4.160;2022-08-01T02:04:31;5.70;;;3.35;;
57635;SDS011;43465;50.728;4.160;2022-08-01T02:07:00;4.95;;;2.95;;
57635;SDS011;43465;50.728;4.160;2022-08-01T02:09:27;5.05;;;3.70;;
57635;SDS011;43465;50.728;4.160;2022-08-01T02:11:53;13.50;;;4.18;;
57635;SDS011;43465;50.728;4.160;2022-08-01T02:14:21;4.28;;;3.63;;
57635;SDS011;43465;50.728;4.160;2022-08-01T02:16:48;8.02;;;4.43;;
57635;SDS011;43465;50.728;4.160;2022-08-01T02:19:18;6.75;;;3.92;;
57635;SDS011;43465;50.728;4.160;2022-08-01T02:21:51;7.50;;;4.28;;
57635;SDS011;43465;50.728;4.160;2022-08-01T02:26:56;9.98;;;4.65;;
57635;SDS011;43465;50.728;4.160;2022-08-01T02:29:33;6.18;;;4.30;;
57635;SDS011;43465;50.728;4.160;2022-08-01T02:32:20;7.47;;;4.30;;
57635;SDS011;43465;50.728;4.160;2022-08-01T02:34:50;6.28;;;4.57;;
57635;SDS011;43465;50.728;4.160;2022-08-01T02:37:17;9.00;;;5.13;;
57635;SDS011;43465;50.728;4.160;2022-08-01T02:39:46;8.30;;;4.90;;
57635;SDS011;43465;50.728;4.160;2022-08-01T02:42:15;11.15;;;5.30;;
57635;SDS011;43465;50.728;4.160;2022-08-01T02:44:44;7.38;;;5.05;;
57635;SDS011;43465;50.728;4.160;2022-08-01T02:47:13;8.13;;;5.40;;
57635;SDS011;43465;50.728;4.160;2022-08-01T02:49:42;11.73;;;6.20;;
57635;SDS011;43465;50.728;4.160;2022-08-01T02:52:12;15.10;;;6.82;;
57635;SDS011;43465;50.728;4.160;2022-08-01T02:54:40;10.15;;;6.07;;
57635;SDS011;43465;50.728;4.160;2022-08-01T02:57:10;14.25;;;6.88;;
57635;SDS011;43465;50.728;4.160;2022-08-01T02:59:38;14.27;;;6.82;;
57635;SDS011;43465;50.728;4.160;2022-08-01T03:02:04;14.45;;;7.57;;
57635;SDS011;43465;50.728;4.160;2022-08-01T03:04:35;9.70;;;6.50;;
57635;SDS011;43465;50.728;4.160;2022-08-01T03:07:04;16.63;;;7.45;;
57635;SDS011;43465;50.728;4.160;2022-08-01T03:09:33;9.25;;;7.13;;
57635;SDS011;43465;50.728;4.160;2022-08-01T03:12:04;13.10;;;8.32;;
57635;SDS011;43465;50.728;4.160;2022-08-01T03:14:36;10.98;;;7.20;;
57635;SDS011;43465;50.728;4.160;2022-08-01T03:17:04;12.50;;;7.85;;
57635;SDS011;43465;50.728;4.160;2022-08-01T03:19:33;13.68;;;7.60;;
57635;SDS011;43465;50.728;4.160;2022-08-01T03:22:01;12.88;;;7.90;;
57635;SDS011;43465;50.728;4.160;2022-08-01T03:24:31;16.20;;;8.32;;
57635;SDS011;43465;50.728;4.160;2022-08-01T03:26:58;14.75;;;8.00;;
57635;SDS011;43465;50.728;4.160;2022-08-01T03:29:25;15.25;;;7.90;;
57635;SDS011;43465;50.728;4.160;2022-08-01T03:31:54;16.67;;;8.73;;
57635;SDS011;43465;50.728;4.160;2022-08-01T03:34:22;17.67;;;9.07;;
57635;SDS011;43465;50.728;4.160;2022-08-01T03:41:50;18.23;;;9.38;;
57635;SDS011;43465;50.728;4.160;2022-08-01T03:44:20;14.00;;;9.47;;
57635;SDS011;43465;50.728;4.160;2022-08-01T03:46:55;18.55;;;11.05;;
57635;SDS011;43465;50.728;4.160;2022-08-01T03:49:29;27.27;;;12.25;;
57635;SDS011;43465;50.728;4.160;2022-08-01T03:51:55;24.27;;;13.25;;
57635;SDS011;43465;50.728;4.160;2022-08-01T03:54:24;23.50;;;13.13;;
57635;SDS011;43465;50.728;4.160;2022-08-01T03:56:53;21.00;;;13.57;;
57635;SDS011;43465;50.728;4.160;2022-08-01T03:59:19;30.65;;;15.73;;
57635;SDS011;43465;50.728;4.160;2022-08-01T04:01:46;35.22;;;16.33;;
57635;SDS011;43465;50.728;4.160;2022-08-01T04:04:13;33.15;;;16.50;;
57635;SDS011;43465;50.728;4.160;2022-08-01T04:06:39;28.50;;;17.58;;
57635;SDS011;43465;50.728;4.160;2022-08-01T04:09:08;34.22;;;17.92;;
57635;SDS011;43465;50.728;4.160;2022-08-01T04:11:34;34.47;;;18.80;;
57635;SDS011;43465;50.728;4.160;2022-08-01T04:14:00;36.30;;;18.33;;
57635;SDS011;43465;50.728;4.160;2022-08-01T04:16:26;29.67;;;17.45;;
57635;SDS011;43465;50.728;4.160;2022-08-01T04:18:51;35.60;;;19.17;;
57635;SDS011;43465;50.728;4.160;2022-08-01T04:21:20;33.38;;;18.65;;
57635;SDS011;43465;50.728;4.160;2022-08-01T04:23:50;34.72;;;18.95;;
57635;SDS011;43465;50.728;4.160;2022-08-01T04:26:18;37.58;;;19.73;;
57635;SDS011;43465;50.728;4.160;2022-08-01T04:28:44;30.98;;;17.88;;
57635;SDS011;43465;50.728;4.160;2022-08-01T04:31:11;33.92;;;18.50;;
57635;SDS011;43465;50.728;4.160;2022-08-01T04:33:42;34.50;;;18.25;;
57635;SDS011;43465;50.728;4.160;2022-08-01T04:36:10;35.30;;;20.05;;
57635;SDS011;43465;50.728;4.160;2022-08-01T04:38:39;29.60;;;18.55;;
57635;SDS011;43465;50.728;4.160;2022-08-01T04:41:07;32.80;;;20.27;;
57635;SDS011;43465;50.728;4.160;2022-08-01T04:43:38;33.00;;;20.17;;
57635;SDS011;43465;50.728;4.160;2022-08-01T04:46:06;37.63;;;21.27;;
57635;SDS011;43465;50.728;4.160;2022-08-01T04:48:32;35.58;;;21.67;;
57635;SDS011;43465;50.728;4.160;2022-08-01T04:51:01;40.72;;;24.20;;
57635;SDS011;43465;50.728;4.160;2022-08-01T04:53:27;34.33;;;21.08;;
57635;SDS011;43465;50.728;4.160;2022-08-01T04:55:52;35.05;;;20.75;;
57635;SDS011;43465;50.728;4.160;2022-08-01T04:58:18;36.10;;;23.23;;
57635;SDS011;43465;50.728;4.160;2022-08-01T05:00:44;36.08;;;22.77;;
57635;SDS011;43465;50.728;4.160;2022-08-01T05:03:11;33.08;;;21.23;;
57635;SDS011;43465;50.728;4.160;2022-08-01T05:05:36;34.38;;;23.25;;
57635;SDS011;43465;50.728;4.160;2022-08-01T05:08:02;39.97;;;22.65;;
57635;SDS011;43465;50.728;4.160;2022-08-01T05:10:28;36.33;;;22.30;;
57635;SDS011;43465;50.728;4.160;2022-08-01T05:12:54;32.90;;;21.38;;
57635;SDS011;43465;50.728;4.160;2022-08-01T05:15:19;37.42;;;22.92;;
57635;SDS011;43465;50.728;4.160;2022-08-01T05:17:46;38.67;;;22.95;;
57635;SDS011;43465;50.728;4.160;2022-08-01T05:20:11;40.33;;;23.85;;
57635;SDS011;43465;50.728;4.160;2022-08-01T05:22:37;36.05;;;24.15;;
57635;SDS011;43465;50.728;4.160;2022-08-01T05:25:03;37.70;;;23.92;;
57635;SDS011;43465;50.728;4.160;2022-08-01T05:27:30;46.72;;;26.02;;
57635;SDS011;43465;50.728;4.160;2022-08-01T05:29:56;42.38;;;24.00;;
57635;SDS011;43465;50.728;4.160;2022-08-01T05:32:22;41.35;;;23.45;;
57635;SDS011;43465;50.728;4.160;2022-08-01T05:34:47;40.58;;;25.08;;
57635;SDS011;43465;50.728;4.160;2022-08-01T05:37:13;38.55;;;23.40;;
57635;SDS011;43465;50.728;4.160;2022-08-01T05:39:39;36.92;;;23.00;;
57635;SDS011;43465;50.728;4.160;2022-08-01T05:42:05;34.33;;;21.90;;
57635;SDS011;43465;50.728;4.160;2022-08-01T05:44:31;34.75;;;21.75;;
57635;SDS011;43465;50.728;4.160;2022-08-01T05:46:56;36.60;;;22.13;;
57635;SDS011;43465;50.728;4.160;2022-08-01T05:49:22;33.38;;;22.00;;
57635;SDS011;43465;50.728;4.160;2022-08-01T05:51:48;41.80;;;22.00;;
57635;SDS011;43465;50.728;4.160;2022-08-01T05:54:14;36.50;;;21.00;;
57635;SDS011;43465;50.728;4.160;2022-08-01T05:56:39;35.88;;;21.40;;
57635;SDS011;43465;50.728;4.160;2022-08-01T05:59:05;34.58;;;20.58;;
57635;SDS011;43465;50.728;4.160;2022-08-01T06:01:31;36.75;;;21.52;;
57635;SDS011;43465;50.728;4.160;2022-08-01T06:03:57;34.92;;;20.90;;
57635;SDS011;43465;50.728;4.160;2022-08-01T06:06:23;36.38;;;19.35;;
57635;SDS011;43465;50.728;4.160;2022-08-01T06:08:49;36.88;;;19.85;;
57635;SDS011;43465;50.728;4.160;2022-08-01T06:11:15;36.70;;;20.05;;
57635;SDS011;43465;50.728;4.160;2022-08-01T06:13:41;35.83;;;21.70;;
57635;SDS011;43465;50.728;4.160;2022-08-01T06:16:06;39.53;;;21.73;;
57635;SDS011;43465;50.728;4.160;2022-08-01T06:18:32;42.72;;;22.33;;
57635;SDS011;43465;50.728;4.160;2022-08-01T06:20:57;39.95;;;22.77;;
57635;SDS011;43465;50.728;4.160;2022-08-01T06:23:23;40.05;;;22.08;;
57635;SDS011;43465;50.728;4.160;2022-08-01T06:25:51;33.40;;;21.35;;
57635;SDS011;43465;50.728;4.160;2022-08-01T06:28:18;32.90;;;23.13;;
57635;SDS011;43465;50.728;4.160;2022-08-01T06:30:43;36.20;;;21.50;;
57635;SDS011;43465;50.728;4.160;2022-08-01T06:33:09;40.45;;;22.40;;
57635;SDS011;43465;50.728;4.160;2022-08-01T06:35:35;27.48;;;19.10;;
57635;SDS011;43465;50.728;4.160;2022-08-01T06:38:01;33.83;;;21.77;;
57635;SDS011;43465;50.728;4.160;2022-08-01T06:40:27;32.42;;;20.33;;
57635;SDS011;43465;50.728;4.160;2022-08-01T06:42:53;33.47;;;19.48;;
57635;SDS011;43465;50.728;4.160;2022-08-01T06:45:19;27.27;;;19.70;;
57635;SDS011;43465;50.728;4.160;2022-08-01T06:47:47;30.70;;;20.13;;
57635;SDS011;43465;50.728;4.160;2022-08-01T06:50:13;28.52;;;20.05;;
57635;SDS011;43465;50.728;4.160;2022-08-01T06:52:39;28.85;;;19.40;;
57635;SDS011;43465;50.728;4.160;2022-08-01T06:55:06;30.35;;;20.42;;
57635;SDS011;43465;50.728;4.160;2022-08-01T06:57:32;29.63;;;19.38;;
57635;SDS011;43465;50.728;4.160;2022-08-01T06:59:57;28.95;;;18.83;;
57635;SDS011;43465;50.728;4.160;2022-08-01T07:02:32;28.52;;;19.45;;
57635;SDS011;43465;50.728;4.160;2022-08-01T07:04:58;26.00;;;19.17;;
57635;SDS011;43465;50.728;4.160;2022-08-01T07:07:25;25.88;;;18.95;;
57635;SDS011;43465;50.728;4.160;2022-08-01T07:09:51;24.38;;;18.65;;
57635;SDS011;43465;50.728;4.160;2022-08-01T07:12:17;20.48;;;16.38;;
57635;SDS011;43465;50.728;4.160;2022-08-01T07:14:43;26.45;;;17.20;;
57635;SDS011;43465;50.728;4.160;2022-08-01T07:17:09;25.90;;;17.10;;
57635;SDS011;43465;50.728;4.160;2022-08-01T07:19:34;21.23;;;16.10;;
57635;SDS011;43465;50.728;4.160;2022-08-01T07:22:00;15.15;;;12.77;;
57635;SDS011;43465;50.728;4.160;2022-08-01T07:24:25;18.35;;;14.30;;
57635;SDS011;43465;50.728;4.160;2022-08-01T07:26:51;19.50;;;14.13;;
57635;SDS011;43465;50.728;4.160;2022-08-01T07:29:19;17.35;;;12.20;;
57635;SDS011;43465;50.728;4.160;2022-08-01T07:31:45;15.65;;;12.10;;
57635;SDS011;43465;50.728;4.160;2022-08-01T07:34:10;17.50;;;11.95;;
57635;SDS011;43465;50.728;4.160;2022-08-01T07:36:36;16.58;;;11.55;;
57635;SDS011;43465;50.728;4.160;2022-08-01T07:39:02;14.43;;;11.43;;
57635;SDS011;43465;50.728;4.160;2022-08-01T07:41:27;15.90;;;11.32;;
57635;SDS011;43465;50.728;4.160;2022-08-01T07:43:53;11.45;;;9.45;;
57635;SDS011;43465;50.728;4.160;2022-08-01T07:46:18;12.38;;;9.52;;
57635;SDS011;43465;50.728;4.160;2022-08-01T07:48:44;13.27;;;8.80;;
57635;SDS011;43465;50.728;4.160;2022-08-01T07:51:10;13.60;;;9.52;;
57635;SDS011;43465;50.728;4.160;2022-08-01T07:53:36;10.35;;;7.78;;
57635;SDS011;43465;50.728;4.160;2022-08-01T07:56:02;7.60;;;6.82;;
57635;SDS011;43465;50.728;4.160;2022-08-01T07:58:30;7.95;;;6.38;;
57635;SDS011;43465;50.728;4.160;2022-08-01T08:00:56;10.68;;;7.75;;
57635;SDS011;43465;50.728;4.160;2022-08-01T08:03:22;10.82;;;6.30;;
57635;SDS011;43465;50.728;4.160;2022-08-01T08:05:47;8.95;;;7.15;;
57635;SDS011;43465;50.728;4.160;2022-08-01T08:08:13;8.00;;;7.28;;
57635;SDS011;43465;50.728;4.160;2022-08-01T08:10:40;6.90;;;6.00;;
57635;SDS011;43465;50.728;4.160;2022-08-01T08:13:06;7.72;;;6.95;;
57635;SDS011;43465;50.728;4.160;2022-08-01T08:15:31;8.07;;;6.30;;
57635;SDS011;43465;50.728;4.160;2022-08-01T08:17:57;8.43;;;7.63;;
57635;SDS011;43465;50.728;4.160;2022-08-01T08:20:23;8.77;;;7.47;;
57635;SDS011;43465;50.728;4.160;2022-08-01T08:22:52;7.97;;;7.28;;
57635;SDS011;43465;50.728;4.160;2022-08-01T08:25:18;8.55;;;7.50;;
57635;SDS011;43465;50.728;4.160;2022-08-01T08:27:45;12.38;;;7.35;;
57635;SDS011;43465;50.728;4.160;2022-08-01T08:30:11;7.60;;;6.90;;
57635;SDS011;43465;50.728;4.160;2022-08-01T08:32:38;7.72;;;6.93;;
57635;SDS011;43465;50.728;4.160;2022-08-01T08:35:04;6.80;;;6.20;;
57635;SDS011;43465;50.728;4.160;2022-08-01T08:37:31;8.77;;;7.95;;
57635;SDS011;43465;50.728;4.160;2022-08-01T08:39:57;9.68;;;8.20;;
57635;SDS011;43465;50.728;4.160;2022-08-01T08:42:23;8.63;;;7.50;;
57635;SDS011;43465;50.728;4.160;2022-08-01T08:44:49;9.52;;;8.45;;
57635;SDS011;43465;50.728;4.160;2022-08-01T08:47:15;9.57;;;8.35;;
57635;SDS011;43465;50.728;4.160;2022-08-01T08:49:42;10.60;;;8.30;;
57635;SDS011;43465;50.728;4.160;2022-08-01T08:52:09;7.80;;;7.00;;
57635;SDS011;43465;50.728;4.160;2022-08-01T08:54:37;8.73;;;6.90;;
57635;SDS011;43465;50.728;4.160;2022-08-01T08:57:03;8.45;;;7.68;;
57635;SDS011;43465;50.728;4.160;2022-08-01T08:59:30;7.30;;;6.30;;
57635;SDS011;43465;50.728;4.160;2022-08-01T09:01:57;7.50;;;5.60;;
57635;SDS011;43465;50.728;4.160;2022-08-01T09:04:23;6.22;;;5.20;;
57635;SDS011;43465;50.728;4.160;2022-08-01T09:06:50;5.90;;;5.38;;
57635;SDS011;43465;50.728;4.160;2022-08-01T09:09:16;6.20;;;5.68;;
57635;SDS011;43465;50.728;4.160;2022-08-01T09:11:42;7.47;;;5.30;;
57635;SDS011;43465;50.728;4.160;2022-08-01T09:14:09;8.65;;;5.65;;
57635;SDS011;43465;50.728;4.160;2022-08-01T09:16:43;6.95;;;5.30;;
57635;SDS011;43465;50.728;4.160;2022-08-01T09:19:14;10.40;;;5.80;;
57635;SDS011;43465;50.728;4.160;2022-08-01T09:22:01;5.78;;;5.30;;
57635;SDS011;43465;50.728;4.160;2022-08-01T09:24:30;5.72;;;5.20;;
57635;SDS011;43465;50.728;4.160;2022-08-01T09:26:58;5.53;;;5.03;;
57635;SDS011;43465;50.728;4.160;2022-08-01T09:29:26;4.93;;;4.53;;
57635;SDS011;43465;50.728;4.160;2022-08-01T09:31:54;5.25;;;4.75;;
57635;SDS011;43465;50.728;4.160;2022-08-01T09:34:30;6.18;;;4.40;;
57635;SDS011;43465;50.728;4.160;2022-08-01T09:36:58;5.07;;;4.00;;
57635;SDS011;43465;50.728;4.160;2022-08-01T09:39:30;4.75;;;4.35;;
57635;SDS011;43465;50.728;4.160;2022-08-01T09:41:58;4.65;;;4.07;;
57635;SDS011;43465;50.728;4.160;2022-08-01T09:47:06;5.32;;;4.88;;
57635;SDS011;43465;50.728;4.160;2022-08-01T09:49:33;7.25;;;5.78;;
57635;SDS011;43465;50.728;4.160;2022-08-01T09:52:12;6.63;;;5.95;;
57635;SDS011;43465;50.728;4.160;2022-08-01T09:54:39;6.55;;;5.68;;
57635;SDS011;43465;50.728;4.160;2022-08-01T09:57:13;5.53;;;5.13;;
57635;SDS011;43465;50.728;4.160;2022-08-01T09:59:44;5.80;;;5.30;;
57635;SDS011;43465;50.728;4.160;2022-08-01T10:02:12;5.35;;;4.93;;
57635;SDS011;43465;50.728;4.160;2022-08-01T10:04:50;6.05;;;5.55;;
57635;SDS011;43465;50.728;4.160;2022-08-01T10:07:17;6.20;;;5.70;;
57635;SDS011;43465;50.728;4.160;2022-08-01T10:09:44;6.65;;;5.53;;
57635;SDS011;43465;50.728;4.160;2022-08-01T10:12:11;5.32;;;4.85;;
57635;SDS011;43465;50.728;4.160;2022-08-01T10:14:38;4.85;;;4.50;;
57635;SDS011;43465;50.728;4.160;2022-08-01T10:17:06;8.05;;;4.10;;
57635;SDS011;43465;50.728;4.160;2022-08-01T10:19:34;3.80;;;3.50;;
57635;SDS011;43465;50.728;4.160;2022-08-01T10:22:01;3.53;;;3.28;;
57635;SDS011;43465;50.728;4.160;2022-08-01T10:24:30;6.63;;;4.18;;
57635;SDS011;43465;50.728;4.160;2022-08-01T10:27:01;5.95;;;5.45;;
57635;SDS011;43465;50.728;4.160;2022-08-01T10:29:31;7.65;;;6.85;;
57635;SDS011;43465;50.728;4.160;2022-08-01T10:32:05;8.35;;;7.57;;
57635;SDS011;43465;50.728;4.160;2022-08-01T10:34:34;7.63;;;6.97;;
57635;SDS011;43465;50.728;4.160;2022-08-01T10:37:01;8.98;;;6.55;;
57635;SDS011;43465;50.728;4.160;2022-08-01T10:39:27;7.82;;;6.00;;
57635;SDS011;43465;50.728;4.160;2022-08-01T10:41:55;6.65;;;5.95;;
57635;SDS011;43465;50.728;4.160;2022-08-01T10:44:21;4.80;;;4.10;;
57635;SDS011;43465;50.728;4.160;2022-08-01T10:46:53;4.97;;;4.47;;
57635;SDS011;43465;50.728;4.160;2022-08-01T10:49:27;4.72;;;4.32;;
57635;SDS011;43465;50.728;4.160;2022-08-01T10:51:55;5.30;;;4.28;;
57635;SDS011;43465;50.728;4.160;2022-08-01T10:54:25;3.85;;;3.55;;
57635;SDS011;43465;50.728;4.160;2022-08-01T10:56:51;5.05;;;3.83;;
57635;SDS011;43465;50.728;4.160;2022-08-01T10:59:21;4.03;;;3.72;;
57635;SDS011;43465;50.728;4.160;2022-08-01T11:02:03;4.90;;;4.50;;
57635;SDS011;43465;50.728;4.160;2022-08-01T11:04:45;6.32;;;5.78;;
57635;SDS011;43465;50.728;4.160;2022-08-01T11:07:21;8.10;;;5.93;;
57635;SDS011;43465;50.728;4.160;2022-08-01T11:09:58;6.75;;;6.15;;
57635;SDS011;43465;50.728;4.160;2022-08-01T11:12:39;7.43;;;6.20;;
57635;SDS011;43465;50.728;4.160;2022-08-01T11:17:36;6.28;;;5.72;;
57635;SDS011;43465;50.728;4.160;2022-08-01T11:20:19;6.65;;;5.05;;
57635;SDS011;43465;50.728;4.160;2022-08-01T11:30:43;4.10;;;3.20;;
57635;SDS011;43465;50.728;4.160;2022-08-01T11:33:11;3.20;;;2.90;;
57635;SDS011;43465;50.728;4.160;2022-08-01T11:36:16;2.80;;;2.60;;
57635;SDS011;43465;50.728;4.160;2022-08-01T11:38:36;3.20;;;2.90;;
57635;SDS011;43465;50.728;4.160;2022-08-01T11:46:59;3.47;;;3.13;;
57635;SDS011;43465;50.728;4.160;2022-08-01T11:52:11;3.08;;;2.80;;
57635;SDS011;43465;50.728;4.160;2022-08-01T11:54:44;3.38;;;2.33;;
57635;SDS011;43465;50.728;4.160;2022-08-01T11:57:21;2.03;;;1.73;;
57635;SDS011;43465;50.728;4.160;2022-08-01T11:59:50;6.32;;;1.67;;
57635;SDS011;43465;50.728;4.160;2022-08-01T12:02:22;5.20;;;1.92;;
57635;SDS011;43465;50.728;4.160;2022-08-01T12:04:59;5.43;;;2.30;;
57635;SDS011;43465;50.728;4.160;2022-08-01T12:07:27;3.03;;;2.20;;
57635;SDS011;43465;50.728;4.160;2022-08-01T12:10:08;2.35;;;2.25;;
57635;SDS011;43465;50.728;4.160;2022-08-01T12:12:35;2.40;;;2.20;;
57635;SDS011;43465;50.728;4.160;2022-08-01T12:15:03;2.78;;;2.58;;
57635;SDS011;43465;50.728;4.160;2022-08-01T12:17:35;4.03;;;2.75;;
57635;SDS011;43465;50.728;4.160;2022-08-01T12:20:07;3.03;;;2.90;;
57635;SDS011;43465;50.728;4.160;2022-08-01T12:22:34;3.65;;;2.88;;
57635;SDS011;43465;50.728;4.160;2022-08-01T12:25:11;3.65;;;2.72;;
57635;SDS011;43465;50.728;4.160;2022-08-01T12:27:41;3.75;;;3.38;;
57635;SDS011;43465;50.728;4.160;2022-08-01T12:30:10;4.28;;;3.88;;
57635;SDS011;43465;50.728;4.160;2022-08-01T12:32:42;3.83;;;3.63;;
57635;SDS011;43465;50.728;4.160;2022-08-01T12:35:14;4.55;;;3.50;;
57635;SDS011;43465;50.728;4.160;2022-08-01T12:37:55;3.10;;;2.90;;
57635;SDS011;43465;50.728;4.160;2022-08-01T12:40:23;4.28;;;3.40;;
57635;SDS011;43465;50.728;4.160;2022-08-01T12:42:52;4.53;;;4.22;;
57635;SDS011;43465;50.728;4.160;2022-08-01T12:45:25;4.72;;;3.47;;
57635;SDS011;43465;50.728;4.160;2022-08-01T12:47:53;4.00;;;3.70;;
57635;SDS011;43465;50.728;4.160;2022-08-01T12:50:29;2.60;;;2.33;;
57635;SDS011;43465;50.728;4.160;2022-08-01T12:52:56;3.22;;;1.95;;
57635;SDS011;43465;50.728;4.160;2022-08-01T12:55:23;4.65;;;1.80;;
57635;SDS011;43465;50.728;4.160;2022-08-01T12:58:03;2.10;;;1.40;;
57635;SDS011;43465;50.728;4.160;2022-08-01T13:00:29;1.20;;;1.10;;
57635;SDS011;43465;50.728;4.160;2022-08-01T13:05:46;1.98;;;1.85;;
57635;SDS011;43465;50.728;4.160;2022-08-01T13:08:17;2.08;;;1.35;;
57635;SDS011;43465;50.728;4.160;2022-08-01T13:10:48;4.32;;;1.40;;
57635;SDS011;43465;50.728;4.160;2022-08-01T13:13:14;1.42;;;0.95;;
57635;SDS011;43465;50.728;4.160;2022-08-01T13:15:42;3.88;;;1.17;;
57635;SDS011;43465;50.728;4.160;2022-08-01T13:18:22;0.98;;;0.98;;
57635;SDS011;43465;50.728;4.160;2022-08-01T13:21:35;7.20;;;1.55;;
57635;SDS011;43465;50.728;4.160;2022-08-01T13:26:41;4.80;;;0.95;;
57635;SDS011;43465;50.728;4.160;2022-08-01T13:29:09;4.38;;;1.30;;
57635;SDS011;43465;50.728;4.160;2022-08-01T13:31:36;1.75;;;1.00;;
57635;SDS011;43465;50.728;4.160;2022-08-01T13:34:03;3.67;;;1.38;;
57635;SDS011;43465;50.728;4.160;2022-08-01T13:36:29;3.53;;;1.30;;
57635;SDS011;43465;50.728;4.160;2022-08-01T13:38:56;2.55;;;1.00;;
57635;SDS011;43465;50.728;4.160;2022-08-01T13:41:40;2.58;;;1.33;;
57635;SDS011;43465;50.728;4.160;2022-08-01T13:44:06;2.00;;;1.40;;
57635;SDS011;43465;50.728;4.160;2022-08-01T13:46:34;2.58;;;1.30;;
57635;SDS011;43465;50.728;4.160;2022-08-01T13:49:00;3.20;;;2.10;;
57635;SDS011;43465;50.728;4.160;2022-08-01T13:51:26;2.33;;;1.60;;
57635;SDS011;43465;50.728;4.160;2022-08-01T13:53:52;2.40;;;1.42;;
57635;SDS011;43465;50.728;4.160;2022-08-01T13:56:18;2.80;;;1.85;;
57635;SDS011;43465;50.728;4.160;2022-08-01T13:58:44;2.60;;;2.40;;
57635;SDS011;43465;50.728;4.160;2022-08-01T14:01:10;5.10;;;2.80;;
57635;SDS011;43465;50.728;4.160;2022-08-01T14:03:37;4.13;;;2.90;;
57635;SDS011;43465;50.728;4.160;2022-08-01T14:06:03;3.58;;;2.58;;
57635;SDS011;43465;50.728;4.160;2022-08-01T14:08:29;2.80;;;2.60;;
57635;SDS011;43465;50.728;4.160;2022-08-01T14:10:55;3.53;;;2.38;;
57635;SDS011;43465;50.728;4.160;2022-08-01T14:13:23;3.70;;;2.60;;
57635;SDS011;43465;50.728;4.160;2022-08-01T14:15:49;3.25;;;2.15;;
57635;SDS011;43465;50.728;4.160;2022-08-01T14:18:16;2.25;;;2.13;;
57635;SDS011;43465;50.728;4.160;2022-08-01T14:20:41;2.70;;;2.50;;
57635;SDS011;43465;50.728;4.160;2022-08-01T14:23:07;4.20;;;3.47;;
57635;SDS011;43465;50.728;4.160;2022-08-01T14:25:34;3.40;;;3.20;;
57635;SDS011;43465;50.728;4.160;2022-08-01T14:28:00;2.90;;;2.70;;
57635;SDS011;43465;50.728;4.160;2022-08-01T14:30:26;3.00;;;2.75;;
57635;SDS011;43465;50.728;4.160;2022-08-01T14:32:52;8.05;;;3.40;;
57635;SDS011;43465;50.728;4.160;2022-08-01T14:35:18;3.70;;;3.25;;
57635;SDS011;43465;50.728;4.160;2022-08-01T14:37:44;3.50;;;3.20;;
57635;SDS011;43465;50.728;4.160;2022-08-01T14:40:09;4.22;;;2.70;;
57635;SDS011;43465;50.728;4.160;2022-08-01T14:42:36;3.08;;;2.30;;
57635;SDS011;43465;50.728;4.160;2022-08-01T14:45:03;2.33;;;2.13;;
57635;SDS011;43465;50.728;4.160;2022-08-01T14:47:33;4.35;;;2.00;;
57635;SDS011;43465;50.728;4.160;2022-08-01T14:50:03;3.65;;;1.80;;
57635;SDS011;43465;50.728;4.160;2022-08-01T14:52:31;2.65;;;2.05;;
57635;SDS011;43465;50.728;4.160;2022-08-01T14:54:58;1.60;;;1.50;;
57635;SDS011;43465;50.728;4.160;2022-08-01T14:57:23;1.98;;;1.45;;
57635;SDS011;43465;50.728;4.160;2022-08-01T14:59:49;3.53;;;1.42;;
57635;SDS011;43465;50.728;4.160;2022-08-01T15:02:15;3.42;;;1.50;;
57635;SDS011;43465;50.728;4.160;2022-08-01T15:04:45;3.13;;;1.60;;
57635;SDS011;43465;50.728;4.160;2022-08-01T15:07:11;3.13;;;1.60;;
57635;SDS011;43465;50.728;4.160;2022-08-01T15:09:37;3.67;;;1.92;;
57635;SDS011;43465;50.728;4.160;2022-08-01T15:12:03;1.80;;;1.70;;
57635;SDS011;43465;50.728;4.160;2022-08-01T15:14:29;2.00;;;1.80;;
57635;SDS011;43465;50.728;4.160;2022-08-01T15:17:22;3.75;;;1.80;;
57635;SDS011;43465;50.728;4.160;2022-08-01T15:19:50;3.65;;;1.80;;
57635;SDS011;43465;50.728;4.160;2022-08-01T15:22:20;2.88;;;1.58;;
57635;SDS011;43465;50.728;4.160;2022-08-01T15:24:47;3.00;;;1.98;;
57635;SDS011;43465;50.728;4.160;2022-08-01T15:27:14;6.03;;;1.80;;
57635;SDS011;43465;50.728;4.160;2022-08-01T15:29:40;4.28;;;1.70;;
57635;SDS011;43465;50.728;4.160;2022-08-01T15:32:06;2.90;;;1.60;;
57635;SDS011;43465;50.728;4.160;2022-08-01T15:34:35;5.45;;;1.70;;
57635;SDS011;43465;50.728;4.160;2022-08-01T15:37:02;2.78;;;1.88;;
57635;SDS011;43465;50.728;4.160;2022-08-01T15:39:28;1.77;;;1.52;;
57635;SDS011;43465;50.728;4.160;2022-08-01T15:41:57;2.55;;;1.60;;